sensor_id;sensor_type;location;lat;lon;timestamp;pressure;altitude;pressure_sealevel;temperature;humidity
13314;BME280;6725;48.112;11.604;2022-10-15T00:01:36;93520.00;;;13.16;100.00
13314;BME280;6725;48.112;11.604;2022-10-15T00:04:01;93354.03;;;13.15;100.00
13314;BME280;6725;48.112;11.604;2022-10-15T00:06:27;93342.59;;;13.16;100.00
13314;BME280;6725;48.112;11.604;2022-10-15T00:08:52;93327.38;;;13.15;100.00
13314;BME280;6725;48.112;11.604;2022-10-15T00:11:20;93308.09;;;13.10;100.00
13314;BME280;6725;48.112;11.604;2022-10-15T00:13:47;93304.72;;;13.15;100.00
13314;BME280;6725;48.112;11.604;2022-10-15T00:16:15;93291.00;;;13.15;100.00
13314;BME280;6725;48.112;11.604;2022-10-15T00:18:41;93282.78;;;13.15;100.00
13314;BME280;6725;48.112;11.604;2022-10-15T00:21:09;93274.28;;;13.13;100.00
13314;BME280;6725;48.112;11.604;2022-10-15T00:23:35;93268.78;;;13.13;100.00
13314;BME280;6725;48.112;11.604;2022-10-15T00:26:02;93255.38;;;13.15;100.00
13314;BME280;6725;48.112;11.604;2022-10-15T00:28:28;93257.34;;;13.14;100.00
13314;BME280;6725;48.112;11.604;2022-10-15T00:30:59;93252.81;;;13.11;100.00
13314;BME280;6725;48.112;11.604;2022-10-15T00:33:25;93238.84;;;13.09;100.00
13314;BME280;6725;48.112;11.604;2022-10-15T00:35:58;93238.34;;;13.11;100.00
13314;BME280;6725;48.112;11.604;2022-10-15T00:38:23;93220.69;;;13.12;100.00
13314;BME280;6725;48.112;11.604;2022-10-15T00:40:49;93217.94;;;13.12;100.00
13314;BME280;6725;48.112;11.604;2022-10-15T00:43:14;93216.41;;;13.11;100.00
13314;BME280;6725;48.112;11.604;2022-10-15T00:45:39;93205.47;;;13.11;100.00
13314;BME280;6725;48.112;11.604;2022-10-15T00:48:06;93192.53;;;13.11;100.00
13314;BME280;6725;48.112;11.604;2022-10-15T00:50:32;93186.47;;;13.07;100.00
13314;BME280;6725;48.112;11.604;2022-10-15T00:53:07;93170.03;;;13.07;100.00
13314;BME280;6725;48.112;11.604;2022-10-15T00:55:40;93170.13;;;13.13;100.00
13314;BME280;6725;48.112;11.604;2022-10-15T00:58:20;93168.63;;;13.12;100.00
13314;BME280;6725;48.112;11.604;2022-10-15T01:00:52;93159.16;;;13.13;100.00
13314;BME280;6725;48.112;11.604;2022-10-15T01:03:18;93150.66;;;13.11;100.00
13314;BME280;6725;48.112;11.604;2022-10-15T01:05:46;93148.50;;;13.15;100.00
13314;BME280;6725;48.112;11.604;2022-10-15T01:08:13;93140.75;;;13.13;100.00
13314;BME280;6725;48.112;11.604;2022-10-15T01:15:54;93139.03;;;13.16;100.00
13314;BME280;6725;48.112;11.604;2022-10-15T01:18:26;93123.25;;;13.11;100.00
13314;BME280;6725;48.112;11.604;2022-10-15T01:23:55;93121.75;;;13.10;100.00
13314;BME280;6725;48.112;11.604;2022-10-15T01:32:22;93105.22;;;13.19;100.00
13314;BME280;6725;48.112;11.604;2022-10-15T01:38:00;93117.19;;;13.21;100.00
13314;BME280;6725;48.112;11.604;2022-10-15T01:43:11;93106.41;;;13.18;100.00
13314;BME280;6725;48.112;11.604;2022-10-15T01:45:48;93101.50;;;13.22;100.00
13314;BME280;6725;48.112;11.604;2022-10-15T01:48:16;93103.03;;;13.23;100.00
13314;BME280;6725;48.112;11.604;2022-10-15T01:50:45;93095.06;;;13.25;100.00
13314;BME280;6725;48.112;11.604;2022-10-15T01:53:15;93092.31;;;13.25;100.00
13314;BME280;6725;48.112;11.604;2022-10-15T01:55:42;93100.56;;;13.25;100.00
13314;BME280;6725;48.112;11.604;2022-10-15T01:58:10;93097.81;;;13.25;100.00
13314;BME280;6725;48.112;11.604;2022-10-15T02:00:38;93099.34;;;13.26;100.00
13314;BME280;6725;48.112;11.604;2022-10-15T02:03:04;93100.56;;;13.25;100.00
13314;BME280;6725;48.112;11.604;2022-10-15T02:05:34;93099.34;;;13.26;100.00
13314;BME280;6725;48.112;11.604;2022-10-15T02:08:43;93098.75;;;13.22;100.00
13314;BME280;6725;48.112;11.604;2022-10-15T02:11:12;93087.06;;;13.21;100.00
13314;BME280;6725;48.112;11.604;2022-10-15T02:13:57;93092.06;;;13.23;100.00
13314;BME280;6725;48.112;11.604;2022-10-15T02:25:10;93086.03;;;13.19;100.00
13314;BME280;6725;48.112;11.604;2022-10-15T02:27:38;93089.97;;;13.18;100.00
13314;BME280;6725;48.112;11.604;2022-10-15T02:30:06;93095.47;;;13.18;100.00
13314;BME280;6725;48.112;11.604;2022-10-15T02:32:34;93091.50;;;13.19;100.00
13314;BME280;6725;48.112;11.604;2022-10-15T02:35:02;93089.97;;;13.18;100.00
13314;BME280;6725;48.112;11.604;2022-10-15T02:37:28;93084.50;;;13.18;100.00
13314;BME280;6725;48.112;11.604;2022-10-15T02:39:55;93087.53;;;13.20;100.00
13314;BME280;6725;48.112;11.604;2022-10-15T02:42:20;93087.78;;;13.22;100.00
13314;BME280;6725;48.112;11.604;2022-10-15T02:44:46;93082.31;;;13.22;100.00
13314;BME280;6725;48.112;11.604;2022-10-15T02:47:11;93093.00;;;13.20;100.00
13314;BME280;6725;48.112;11.604;2022-10-15T02:49:37;93086.28;;;13.21;100.00
13314;BME280;6725;48.112;11.604;2022-10-15T02:52:03;93089.50;;;13.19;100.00
13314;BME280;6725;48.112;11.604;2022-10-15T02:54:29;93084.50;;;13.18;100.00
13314;BME280;6725;48.112;11.604;2022-10-15T02:56:54;93079.56;;;13.22;100.00
13314;BME280;6725;48.112;11.604;2022-10-15T02:59:19;93092.06;;;13.23;100.00
13314;BME280;6725;48.112;11.604;2022-10-15T03:01:45;93078.63;;;13.25;100.00
13314;BME280;6725;48.112;11.604;2022-10-15T03:04:10;93089.59;;;13.25;100.00
13314;BME280;6725;48.112;11.604;2022-10-15T03:06:36;93091.13;;;13.26;100.00
13314;BME280;6725;48.112;11.604;2022-10-15T03:09:01;93084.88;;;13.25;100.00
13314;BME280;6725;48.112;11.604;2022-10-15T03:11:26;93087.13;;;13.27;100.00
13314;BME280;6725;48.112;11.604;2022-10-15T03:13:52;93093.66;;;13.29;100.00
13314;BME280;6725;48.112;11.604;2022-10-15T03:16:17;93091.66;;;13.30;100.00
13314;BME280;6725;48.112;11.604;2022-10-15T03:18:42;93093.44;;;13.33;100.00
13314;BME280;6725;48.112;11.604;2022-10-15T03:21:08;93094.03;;;13.37;100.00
13314;BME280;6725;48.112;11.604;2022-10-15T03:23:33;93085.78;;;13.37;100.00
13314;BME280;6725;48.112;11.604;2022-10-15T03:25:59;93100.53;;;13.40;100.00
13314;BME280;6725;48.112;11.604;2022-10-15T03:28:24;93095.03;;;13.40;100.00
13314;BME280;6725;48.112;11.604;2022-10-15T03:30:49;93088.78;;;13.39;100.00
13314;BME280;6725;48.112;11.604;2022-10-15T03:33:15;93093.81;;;13.41;100.00
13314;BME280;6725;48.112;11.604;2022-10-15T03:35:40;93093.50;;;13.38;100.00
13314;BME280;6725;48.112;11.604;2022-10-15T03:38:06;93094.09;;;13.43;100.00
13314;BME280;6725;48.112;11.604;2022-10-15T03:40:32;93096.34;;;13.44;100.00
13314;BME280;6725;48.112;11.604;2022-10-15T03:42:57;93096.06;;;13.42;100.00
13314;BME280;6725;48.112;11.604;2022-10-15T03:45:23;93097.56;;;13.43;100.00
13314;BME280;6725;48.112;11.604;2022-10-15T03:47:49;93096.63;;;13.46;100.00
13314;BME280;6725;48.112;11.604;2022-10-15T03:50:15;93093.88;;;13.46;100.00
13314;BME280;6725;48.112;11.604;2022-10-15T03:52:40;93095.38;;;13.47;100.00
13314;BME280;6725;48.112;11.604;2022-10-15T03:55:06;93097.66;;;13.49;100.00
13314;BME280;6725;48.112;11.604;2022-10-15T03:57:32;93102.41;;;13.48;100.00
13314;BME280;6725;48.112;11.604;2022-10-15T03:59:57;93105.41;;;13.50;100.00
13314;BME280;6725;48.112;11.604;2022-10-15T04:02:23;93109.66;;;13.51;100.00
13314;BME280;6725;48.112;11.604;2022-10-15T04:04:52;93109.38;;;13.49;100.00
13314;BME280;6725;48.112;11.604;2022-10-15T04:07:18;93107.66;;;13.52;100.00
13314;BME280;6725;48.112;11.604;2022-10-15T04:09:44;93101.41;;;13.51;100.00
13314;BME280;6725;48.112;11.604;2022-10-15T04:12:10;93106.91;;;13.51;100.00
13314;BME280;6725;48.112;11.604;2022-10-15T04:14:35;93109.38;;;13.49;100.00
13314;BME280;6725;48.112;11.604;2022-10-15T04:17:00;93111.44;;;13.54;100.00
13314;BME280;6725;48.112;11.604;2022-10-15T04:19:26;93118.44;;;13.55;100.00
13314;BME280;6725;48.112;11.604;2022-10-15T04:21:51;93114.47;;;13.56;100.00
13314;BME280;6725;48.112;11.604;2022-10-15T04:24:16;93114.25;;;13.60;100.00
13314;BME280;6725;48.112;11.604;2022-10-15T04:26:42;93109.53;;;13.60;100.00
13314;BME280;6725;48.112;11.604;2022-10-15T04:29:07;93119.00;;;13.59;100.00
13314;BME280;6725;48.112;11.604;2022-10-15T04:31:33;93123.25;;;13.60;100.00
13314;BME280;6725;48.112;11.604;2022-10-15T04:33:58;93118.03;;;13.62;100.00
13314;BME280;6725;48.112;11.604;2022-10-15T04:36:23;93123.50;;;13.62;100.00
13314;BME280;6725;48.112;11.604;2022-10-15T04:38:49;93120.59;;;13.66;100.00
13314;BME280;6725;48.112;11.604;2022-10-15T04:41:14;93112.91;;;13.70;100.00
13314;BME280;6725;48.112;11.604;2022-10-15T04:43:40;93108.75;;;13.74;100.00
13314;BME280;6725;48.112;11.604;2022-10-15T04:46:06;93106.81;;;13.80;100.00
13314;BME280;6725;48.112;11.604;2022-10-15T04:48:34;93111.81;;;13.82;100.00
13314;BME280;6725;48.112;11.604;2022-10-15T04:53:30;93107.41;;;13.90;100.00
13314;BME280;6725;48.112;11.604;2022-10-15T04:56:07;93112.44;;;13.91;100.00
13314;BME280;6725;48.112;11.604;2022-10-15T04:58:34;93107.50;;;13.95;100.00
13314;BME280;6725;48.112;11.604;2022-10-15T05:01:06;93109.03;;;13.96;100.00
13314;BME280;6725;48.112;11.604;2022-10-15T05:03:33;93105.88;;;14.03;100.00
13314;BME280;6725;48.112;11.604;2022-10-15T05:06:05;93096.66;;;14.06;100.00
13314;BME280;6725;48.112;11.604;2022-10-15T05:08:32;93105.94;;;14.09;100.00
13314;BME280;6725;48.112;11.604;2022-10-15T05:11:03;93108.19;;;14.10;100.00
13314;BME280;6725;48.112;11.604;2022-10-15T05:13:29;93111.00;;;14.16;100.00
13314;BME280;6725;48.112;11.604;2022-10-15T05:15:55;93114.78;;;14.18;100.00
13314;BME280;6725;48.112;11.604;2022-10-15T05:18:20;93125.56;;;14.22;100.00
13314;BME280;6725;48.112;11.604;2022-10-15T05:20:45;93128.13;;;14.25;100.00
13314;BME280;6725;48.112;11.604;2022-10-15T05:23:11;93129.63;;;14.26;100.00
13314;BME280;6725;48.112;11.604;2022-10-15T05:25:36;93118.91;;;14.28;100.00
13314;BME280;6725;48.112;11.604;2022-10-15T05:28:02;93120.69;;;14.31;100.00
13314;BME280;6725;48.112;11.604;2022-10-15T05:30:27;93113.22;;;14.32;100.00
13314;BME280;6725;48.112;11.604;2022-10-15T05:32:53;93130.44;;;14.32;100.00
13314;BME280;6725;48.112;11.604;2022-10-15T05:35:19;93135.94;;;14.32;100.00
13314;BME280;6725;48.112;11.604;2022-10-15T05:37:44;93141.97;;;14.36;100.00
13314;BME280;6725;48.112;11.604;2022-10-15T05:40:10;93135.50;;;14.39;100.00
13314;BME280;6725;48.112;11.604;2022-10-15T05:42:36;93136.06;;;14.43;100.00
13314;BME280;6725;48.112;11.604;2022-10-15T05:45:02;93150.28;;;14.42;100.00
13314;BME280;6725;48.112;11.604;2022-10-15T05:47:27;93143.31;;;14.46;100.00
13314;BME280;6725;48.112;11.604;2022-10-15T05:49:53;93146.06;;;14.46;100.00
13314;BME280;6725;48.112;11.604;2022-10-15T05:52:18;93139.84;;;14.46;100.00
13314;BME280;6725;48.112;11.604;2022-10-15T05:54:43;93149.84;;;14.49;100.00
13314;BME280;6725;48.112;11.604;2022-10-15T05:57:09;93153.09;;;14.47;100.00
13314;BME280;6725;48.112;11.604;2022-10-15T05:59:34;93156.84;;;14.50;100.00
13314;BME280;6725;48.112;11.604;2022-10-15T06:01:59;93149.63;;;14.52;100.00
13314;BME280;6725;48.112;11.604;2022-10-15T06:04:25;93157.88;;;14.52;100.00
13314;BME280;6725;48.112;11.604;2022-10-15T06:06:50;93157.16;;;14.57;100.00
13314;BME280;6725;48.112;11.604;2022-10-15T06:09:16;93164.19;;;14.58;100.00
13314;BME280;6725;48.112;11.604;2022-10-15T06:11:41;93168.69;;;14.61;100.00
13314;BME280;6725;48.112;11.604;2022-10-15T06:14:06;93176.47;;;14.63;100.00
13314;BME280;6725;48.112;11.604;2022-10-15T06:16:32;93181.97;;;14.63;100.00
13314;BME280;6725;48.112;11.604;2022-10-15T06:18:57;93183.25;;;14.67;100.00
13314;BME280;6725;48.112;11.604;2022-10-15T06:21:23;93184.03;;;14.68;100.00
13314;BME280;6725;48.112;11.604;2022-10-15T06:23:49;93192.53;;;14.70;100.00
13314;BME280;6725;48.112;11.604;2022-10-15T06:26:14;93203.03;;;14.71;100.00
13314;BME280;6725;48.112;11.604;2022-10-15T06:28:40;93203.81;;;14.72;100.00
13314;BME280;6725;48.112;11.604;2022-10-15T06:31:05;93190.78;;;14.72;100.00
13314;BME280;6725;48.112;11.604;2022-10-15T06:33:31;93212.78;;;14.72;100.00
13314;BME280;6725;48.112;11.604;2022-10-15T06:36:06;93211.28;;;14.71;100.00
13314;BME280;6725;48.112;11.604;2022-10-15T06:38:32;93219.25;;;14.69;100.00
13314;BME280;6725;48.112;11.604;2022-10-15T06:40:58;93233.25;;;14.71;100.00
13314;BME280;6725;48.112;11.604;2022-10-15T06:43:23;93229.25;;;14.72;100.00
13314;BME280;6725;48.112;11.604;2022-10-15T06:45:49;93234.75;;;14.72;100.00
13314;BME280;6725;48.112;11.604;2022-10-15T06:48:15;93232.59;;;14.76;100.00
13314;BME280;6725;48.112;11.604;2022-10-15T06:50:40;93236.63;;;14.81;100.00
13314;BME280;6725;48.112;11.604;2022-10-15T06:53:06;93239.84;;;14.79;100.00
13314;BME280;6725;48.112;11.604;2022-10-15T06:55:32;93236.69;;;14.86;100.00
13314;BME280;6725;48.112;11.604;2022-10-15T06:57:57;93239.97;;;14.90;100.00
13314;BME280;6725;48.112;11.604;2022-10-15T07:00:23;93227.75;;;14.91;100.00
13314;BME280;6725;48.112;11.604;2022-10-15T07:02:49;93239.53;;;14.97;100.00
13314;BME280;6725;48.112;11.604;2022-10-15T07:05:16;93244.63;;;15.04;100.00
13314;BME280;6725;48.112;11.604;2022-10-15T07:07:41;93249.16;;;15.07;100.00
13314;BME280;6725;48.112;11.604;2022-10-15T07:10:07;93247.66;;;15.06;100.00
13314;BME280;6725;48.112;11.604;2022-10-15T07:12:33;93262.47;;;15.14;100.00
13314;BME280;6725;48.112;11.604;2022-10-15T07:14:58;93264.03;;;15.21;100.00
13314;BME280;6725;48.112;11.604;2022-10-15T07:17:24;93260.09;;;15.27;100.00
13314;BME280;6725;48.112;11.604;2022-10-15T07:19:49;93266.16;;;15.31;100.00
13314;BME280;6725;48.112;11.604;2022-10-15T07:22:14;93267.91;;;15.34;100.00
13314;BME280;6725;48.112;11.604;2022-10-15T07:24:40;93262.16;;;15.32;100.00
13314;BME280;6725;48.112;11.604;2022-10-15T07:27:05;93255.97;;;15.37;100.00
13314;BME280;6725;48.112;11.604;2022-10-15T07:29:30;93255.25;;;15.37;100.00
13314;BME280;6725;48.112;11.604;2022-10-15T07:31:56;93266.97;;;15.37;100.00
13314;BME280;6725;48.112;11.604;2022-10-15T07:34:22;93272.22;;;15.35;100.00
13314;BME280;6725;48.112;11.604;2022-10-15T07:36:47;93275.53;;;15.39;100.00
13314;BME280;6725;48.112;11.604;2022-10-15T07:39:13;93257.75;;;15.40;100.00
13314;BME280;6725;48.112;11.604;2022-10-15T07:41:38;93275.09;;;15.46;100.00
13314;BME280;6725;48.112;11.604;2022-10-15T07:44:04;93269.16;;;15.53;100.00
13314;BME280;6725;48.112;11.604;2022-10-15T07:46:29;93268.63;;;15.49;100.00
13314;BME280;6725;48.112;11.604;2022-10-15T07:48:55;93279.63;;;15.49;100.00
13314;BME280;6725;48.112;11.604;2022-10-15T07:51:20;93273.84;;;15.47;100.00
13314;BME280;6725;48.112;11.604;2022-10-15T07:53:46;93285.31;;;15.46;100.00
13314;BME280;6725;48.112;11.604;2022-10-15T07:56:13;93290.06;;;15.45;100.00
13314;BME280;6725;48.112;11.604;2022-10-15T07:58:39;93283.59;;;15.48;100.00
13314;BME280;6725;48.112;11.604;2022-10-15T08:01:06;93283.41;;;15.52;100.00
13314;BME280;6725;48.112;11.604;2022-10-15T08:03:32;93291.41;;;15.55;100.00
13314;BME280;6725;48.112;11.604;2022-10-15T08:06:05;93299.91;;;15.52;100.00
13314;BME280;6725;48.112;11.604;2022-10-15T08:08:32;93299.13;;;15.51;100.00
13314;BME280;6725;48.112;11.604;2022-10-15T08:11:03;93294.72;;;15.59;100.00
13314;BME280;6725;48.112;11.604;2022-10-15T08:13:29;93303.78;;;15.65;100.00
13314;BME280;6725;48.112;11.604;2022-10-15T08:15:56;93312.75;;;15.60;100.00
13314;BME280;6725;48.112;11.604;2022-10-15T08:18:21;93317.25;;;15.63;100.00
13314;BME280;6725;48.112;11.604;2022-10-15T08:20:47;93322.75;;;15.63;100.00
13314;BME280;6725;48.112;11.604;2022-10-15T08:23:14;93326.31;;;15.69;100.00
13314;BME280;6725;48.112;11.604;2022-10-15T08:25:40;93337.75;;;15.62;100.00
13314;BME280;6725;48.112;11.604;2022-10-15T08:28:06;93348.78;;;15.62;100.00
13314;BME280;6725;48.112;11.604;2022-10-15T08:30:34;93353.84;;;15.69;100.00
13314;BME280;6725;48.112;11.604;2022-10-15T08:32:59;93363.91;;;15.72;100.00
13314;BME280;6725;48.112;11.604;2022-10-15T08:35:24;93378.91;;;15.71;100.00
13314;BME280;6725;48.112;11.604;2022-10-15T08:37:53;93382.88;;;15.70;100.00
13314;BME280;6725;48.112;11.604;2022-10-15T08:40:20;93389.91;;;15.71;100.00
13314;BME280;6725;48.112;11.604;2022-10-15T08:42:45;93408.34;;;15.65;100.00
13314;BME280;6725;48.112;11.604;2022-10-15T08:45:15;93408.66;;;15.73;100.00
13314;BME280;6725;48.112;11.604;2022-10-15T08:52:44;93438.75;;;15.56;100.00
13314;BME280;6725;48.112;11.604;2022-10-15T08:55:12;93439.19;;;15.49;100.00
13314;BME280;6725;48.112;11.604;2022-10-15T08:57:57;93445.03;;;15.57;100.00
13314;BME280;6725;48.112;11.604;2022-10-15T09:01:01;93433.66;;;15.69;100.00
13314;BME280;6725;48.112;11.604;2022-10-15T09:03:54;93437.25;;;15.75;100.00
13314;BME280;6725;48.112;11.604;2022-10-15T09:06:35;93439.78;;;15.79;100.00
13314;BME280;6725;48.112;11.604;2022-10-15T09:09:36;93428.09;;;15.89;100.00
13314;BME280;6725;48.112;11.604;2022-10-15T09:14:42;93424.25;;;16.01;100.00
13314;BME280;6725;48.112;11.604;2022-10-15T09:17:34;93412.38;;;16.15;100.00
13314;BME280;6725;48.112;11.604;2022-10-15T09:20:04;93406.97;;;16.26;100.00
13314;BME280;6725;48.112;11.604;2022-10-15T09:22:31;93405.91;;;16.50;100.00
13314;BME280;6725;48.112;11.604;2022-10-15T09:24:58;93385.81;;;16.75;100.00
13314;BME280;6725;48.112;11.604;2022-10-15T09:27:32;93380.59;;;16.88;100.00
13314;BME280;6725;48.112;11.604;2022-10-15T09:32:46;93365.97;;;17.18;100.00
13314;BME280;6725;48.112;11.604;2022-10-15T09:35:23;93366.56;;;17.39;100.00
13314;BME280;6725;48.112;11.604;2022-10-15T09:38:00;93356.13;;;17.65;100.00
13314;BME280;6725;48.112;11.604;2022-10-15T09:40:46;93356.69;;;17.85;100.00
13314;BME280;6725;48.112;11.604;2022-10-15T09:43:22;93376.78;;;17.91;100.00
13314;BME280;6725;48.112;11.604;2022-10-15T09:45:52;93398.41;;;17.98;100.00
13314;BME280;6725;48.112;11.604;2022-10-15T09:48:18;93419.00;;;18.03;100.00
13314;BME280;6725;48.112;11.604;2022-10-15T09:54:00;93460.97;;;18.12;100.00
13314;BME280;6725;48.112;11.604;2022-10-15T09:56:35;93477.81;;;18.20;100.00
13314;BME280;6725;48.112;11.604;2022-10-15T09:59:00;93503.47;;;18.26;100.00
13314;BME280;6725;48.112;11.604;2022-10-15T10:01:31;93503.97;;;18.30;100.00
13314;BME280;6725;48.112;11.604;2022-10-15T10:04:18;93505.19;;;18.18;100.00
13314;BME280;6725;48.112;11.604;2022-10-15T10:06:51;93513.75;;;18.31;100.00
13314;BME280;6725;48.112;11.604;2022-10-15T10:09:23;93529.41;;;18.39;100.00
13314;BME280;6725;48.112;11.604;2022-10-15T10:11:55;93544.22;;;18.42;100.00
13314;BME280;6725;48.112;11.604;2022-10-15T10:14:31;93545.03;;;18.59;100.00
13314;BME280;6725;48.112;11.604;2022-10-15T10:17:17;93550.59;;;18.70;100.00
13314;BME280;6725;48.112;11.604;2022-10-15T10:19:44;93565.44;;;18.89;100.00
13314;BME280;6725;48.112;11.604;2022-10-15T10:22:16;93578.78;;;18.96;100.00
13314;BME280;6725;48.112;11.604;2022-10-15T10:24:42;93593.44;;;19.29;100.00
13314;BME280;6725;48.112;11.604;2022-10-15T10:27:23;93604.00;;;19.75;100.00
13314;BME280;6725;48.112;11.604;2022-10-15T10:30:01;93619.81;;;20.13;100.00
13314;BME280;6725;48.112;11.604;2022-10-15T10:32:32;93651.31;;;20.10;100.00
13314;BME280;6725;48.112;11.604;2022-10-15T10:34:59;93659.56;;;20.43;100.00
13314;BME280;6725;48.112;11.604;2022-10-15T10:37:26;93678.25;;;20.37;100.00
13314;BME280;6725;48.112;11.604;2022-10-15T10:39:57;93681.19;;;20.67;100.00
13314;BME280;6725;48.112;11.604;2022-10-15T10:42:33;93673.16;;;21.55;100.00
13314;BME280;6725;48.112;11.604;2022-10-15T10:45:34;93692.69;;;22.14;100.00
13314;BME280;6725;48.112;11.604;2022-10-15T10:48:18;93732.31;;;21.91;100.00
13314;BME280;6725;48.112;11.604;2022-10-15T10:50:44;93754.91;;;21.76;100.00
13314;BME280;6725;48.112;11.604;2022-10-15T10:53:23;93776.84;;;21.39;100.00
13314;BME280;6725;48.112;11.604;2022-10-15T10:55:49;93772.13;;;21.69;100.00
13314;BME280;6725;48.112;11.604;2022-10-15T10:58:21;93776.09;;;21.85;100.00
13314;BME280;6725;48.112;11.604;2022-10-15T11:00:49;93779.63;;;21.85;100.00
13314;BME280;6725;48.112;11.604;2022-10-15T11:03:30;93789.41;;;21.92;100.00
13314;BME280;6725;48.112;11.604;2022-10-15T11:08:42;93811.09;;;21.58;100.00
13314;BME280;6725;48.112;11.604;2022-10-15T11:11:11;93815.59;;;21.67;100.00
13314;BME280;6725;48.112;11.604;2022-10-15T11:13:53;93822.91;;;21.64;100.00
13314;BME280;6725;48.112;11.604;2022-10-15T11:40:20;93867.41;;;21.59;100.00
13314;BME280;6725;48.112;11.604;2022-10-15T11:43:02;93868.44;;;21.56;100.00
13314;BME280;6725;48.112;11.604;2022-10-15T11:56:16;93892.38;;;21.75;100.00
13314;BME280;6725;48.112;11.604;2022-10-15T11:58:51;93889.41;;;21.57;100.00
13314;BME280;6725;48.112;11.604;2022-10-15T12:01:24;93894.53;;;21.36;100.00
13314;BME280;6725;48.112;11.604;2022-10-15T12:04:11;93891.03;;;21.19;100.00
13314;BME280;6725;48.112;11.604;2022-10-15T12:06:44;93893.56;;;21.17;100.00
13314;BME280;6725;48.112;11.604;2022-10-15T12:09:15;93917.25;;;21.29;100.00
13314;BME280;6725;48.112;11.604;2022-10-15T12:11:44;93917.03;;;21.11;100.00
13314;BME280;6725;48.112;11.604;2022-10-15T12:15:13;93921.31;;;21.23;100.00
13314;BME280;6725;48.112;11.604;2022-10-15T12:19:53;93949.63;;;21.05;100.00
13314;BME280;6725;48.112;11.604;2022-10-15T12:22:34;93964.25;;;20.94;100.00
13314;BME280;6725;48.112;11.604;2022-10-15T12:25:02;93977.13;;;20.97;100.00
13314;BME280;6725;48.112;11.604;2022-10-15T12:27:33;93972.56;;;21.00;100.00
13314;BME280;6725;48.112;11.604;2022-10-15T12:32:50;93967.00;;;21.33;100.00
13314;BME280;6725;48.112;11.604;2022-10-15T12:37:42;93979.66;;;21.23;100.00
13314;BME280;6725;48.112;11.604;2022-10-15T12:45:22;93982.13;;;21.43;100.00
13314;BME280;6725;48.112;11.604;2022-10-15T12:47:53;93993.25;;;21.43;100.00
13314;BME280;6725;48.112;11.604;2022-10-15T12:50:24;93981.34;;;21.53;100.00
13314;BME280;6725;48.112;11.604;2022-10-15T12:57:56;93980.66;;;21.09;100.00
13314;BME280;6725;48.112;11.604;2022-10-15T13:00:27;93979.66;;;21.12;100.00
13314;BME280;6725;48.112;11.604;2022-10-15T13:02:53;93990.72;;;20.90;100.00
13314;BME280;6725;48.112;11.604;2022-10-15T13:07:54;93974.06;;;20.73;100.00
13314;BME280;6725;48.112;11.604;2022-10-15T13:10:33;93980.34;;;20.68;100.00
13314;BME280;6725;48.112;11.604;2022-10-15T13:13:02;93982.38;;;20.62;100.00
13314;BME280;6725;48.112;11.604;2022-10-15T13:15:29;93983.38;;;20.59;100.00
13314;BME280;6725;48.112;11.604;2022-10-15T13:17:58;93988.94;;;20.59;100.00
13314;BME280;6725;48.112;11.604;2022-10-15T13:20:50;93994.69;;;20.50;100.00
13314;BME280;6725;48.112;11.604;2022-10-15T13:23:23;94002.25;;;20.44;100.00
13314;BME280;6725;48.112;11.604;2022-10-15T13:25:50;94003.50;;;20.43;100.00
13314;BME280;6725;48.112;11.604;2022-10-15T13:28:33;93989.91;;;20.56;100.00
13314;BME280;6725;48.112;11.604;2022-10-15T13:31:02;93998.28;;;20.73;100.00
13314;BME280;6725;48.112;11.604;2022-10-15T13:33:29;94003.56;;;20.87;100.00
13314;BME280;6725;48.112;11.604;2022-10-15T13:35:55;94005.66;;;20.92;100.00
13314;BME280;6725;48.112;11.604;2022-10-15T13:38:28;94016.25;;;20.99;100.00
13314;BME280;6725;48.112;11.604;2022-10-15T13:40:53;94021.03;;;21.10;100.00
13314;BME280;6725;48.112;11.604;2022-10-15T13:43:22;94025.31;;;21.16;100.00
13314;BME280;6725;48.112;11.604;2022-10-15T13:45:58;94020.28;;;21.09;100.00
13314;BME280;6725;48.112;11.604;2022-10-15T13:48:28;94005.66;;;21.25;100.00
13314;BME280;6725;48.112;11.604;2022-10-15T13:50:55;94022.31;;;21.36;100.00
13314;BME280;6725;48.112;11.604;2022-10-15T13:53:32;94017.47;;;21.42;100.00
13314;BME280;6725;48.112;11.604;2022-10-15T13:56:00;94021.53;;;21.47;100.00
13314;BME280;6725;48.112;11.604;2022-10-15T13:58:32;94014.22;;;21.38;100.00
13314;BME280;6725;48.112;11.604;2022-10-15T14:01:30;94005.66;;;21.25;100.00
13314;BME280;6725;48.112;11.604;2022-10-15T14:03:58;94008.66;;;21.22;100.00
13314;BME280;6725;48.112;11.604;2022-10-15T14:06:29;94028.38;;;20.96;100.00
13314;BME280;6725;48.112;11.604;2022-10-15T14:11:25;94038.66;;;20.79;100.00
13314;BME280;6725;48.112;11.604;2022-10-15T14:13:54;94023.47;;;20.64;100.00
13314;BME280;6725;48.112;11.604;2022-10-15T14:16:30;94046.88;;;20.46;100.00
13314;BME280;6725;48.112;11.604;2022-10-15T14:19:13;94045.84;;;20.38;100.00
13314;BME280;6725;48.112;11.604;2022-10-15T14:21:43;94043.84;;;20.33;100.00
13314;BME280;6725;48.112;11.604;2022-10-15T14:26:38;94043.59;;;20.42;100.00
13314;BME280;6725;48.112;11.604;2022-10-15T14:29:04;94053.91;;;20.36;100.00
13314;BME280;6725;48.112;11.604;2022-10-15T14:31:36;94055.97;;;20.41;100.00
13314;BME280;6725;48.112;11.604;2022-10-15T14:34:03;94043.09;;;20.44;100.00
13314;BME280;6725;48.112;11.604;2022-10-15T14:36:31;94043.84;;;20.33;100.00
13314;BME280;6725;48.112;11.604;2022-10-15T14:39:17;94045.84;;;20.38;100.00
13314;BME280;6725;48.112;11.604;2022-10-15T14:41:59;94044.88;;;20.41;100.00
13314;BME280;6725;48.112;11.604;2022-10-15T14:44:38;94049.41;;;20.44;100.00
13314;BME280;6725;48.112;11.604;2022-10-15T14:47:03;94058.69;;;20.30;100.00
13314;BME280;6725;48.112;11.604;2022-10-15T14:49:31;94054.66;;;20.37;100.00